CheckWX is a tool to help pilots better visualize weather data.  It is not intended as a substitute for an official pre-flight weather briefing.

09:20:35 UTC

RKNY METAR
Yangyang International Airport
Sokcho / Gangneung, South Korea
Current

21 mins ago

RKNY 230900Z 25005KT CAVOK 32/22 Q1001 NOSIG
Observed
Jul-23 @ 09:00 UTC
Wind
  • 250° at 5 KTS
Visibility
10,000+ meters
Flight Rules
VFR
Cloud Levels
  • Clear skies
Temperature
32°C / 90°F
Dewpoint
22°C / 72°F
Heat Index
36°C / 97°F
Humidity
55%
Altimeter
29.56" Hg
Pressure
1000.92 hPa
Previous

1 hour ago

RKNY 230800Z 25006KT CAVOK 32/22 Q1000 NOSIG
Observed
Jul-23 @ 08:00 UTC
Wind
  • 250° at 6 KTS
Visibility
10,000+ meters
Flight Rules
VFR
Cloud Levels
  • Clear skies
Temperature
32°C / 90°F
Dewpoint
22°C / 72°F
Heat Index
36°C / 97°F
Humidity
55%
Altimeter
29.53" Hg
Pressure
999.92 hPa
Previous

2 hours ago

RKNY 230700Z 25007KT CAVOK 33/22 Q1001 NOSIG
Observed
Jul-23 @ 07:00 UTC
Wind
  • 250° at 7 KTS
Visibility
10,000+ meters
Flight Rules
VFR
Cloud Levels
  • Clear skies
Temperature
33°C / 91°F
Dewpoint
22°C / 72°F
Heat Index
37°C / 98°F
Humidity
52%
Altimeter
29.56" Hg
Pressure
1000.92 hPa